Time;durP1;ratioP1;P1;durP2;ratioP2;P2;SDS_P1;SDS_P2;PMS_P1;PMS_P2;Temp;Humidity;BMP_temperature;BMP_pressure;BME280_temperature;BME280_humidity;BME280_pressure;Samples;Min_cycle;Max_cycle;Signal;HPM_P1;HPM_P2
2024/01/28 00:02:13;;;;;;;;;21.33;21.00;;;;;7.37;61.02;102565.88;5060937;28;45492;-78
2024/01/28 00:04:39;;;;;;;;;17.33;17.33;;;;;7.08;60.85;102510.97;5073281;28;45198;-80
2024/01/28 00:07:04;;;;;;;;;22.00;18.33;;;;;7.39;60.52;102558.69;5076112;28;45749;-80
2024/01/28 00:09:29;;;;;;;;;14.33;13.33;;;;;7.40;60.58;102549.81;5074851;28;44905;-80
2024/01/28 00:11:55;;;;;;;;;14.33;11.67;;;;;7.17;60.60;102515.75;5074393;28;45017;-81
2024/01/28 00:14:20;;;;;;;;;16.00;15.00;;;;;7.36;60.42;102529.75;5075415;28;45514;-80
2024/01/28 00:16:45;;;;;;;;;16.00;15.00;;;;;7.01;60.61;102473.41;5090144;28;45054;-78
2024/01/28 00:19:11;;;;;;;;;18.00;15.67;;;;;6.85;60.40;102460.09;5078275;28;45362;-80
2024/01/28 00:21:36;;;;;;;;;15.00;14.00;;;;;6.77;60.35;102443.75;5071129;28;44996;-81
2024/01/28 00:24:04;;;;;;;;;16.00;11.67;;;;;7.07;60.74;102488.94;5071144;28;45400;-79
2024/01/28 00:26:29;;;;;;;;;18.00;16.00;;;;;7.09;60.95;102494.16;5073174;28;45108;-79
2024/01/28 00:28:55;;;;;;;;;23.00;18.67;;;;;6.82;61.01;102449.69;5073305;28;45336;-80
2024/01/28 00:31:20;;;;;;;;;19.33;17.00;;;;;7.12;60.51;102491.34;5075831;28;45178;-81
2024/01/28 00:33:46;;;;;;;;;19.67;15.33;;;;;7.08;60.69;102497.72;5072425;28;45432;-80
2024/01/28 00:36:15;;;;;;;;;19.67;17.00;;;;;7.03;61.37;102486.53;5078870;28;45033;-77
2024/01/28 00:38:41;;;;;;;;;15.00;15.00;;;;;6.98;60.92;102484.97;5090920;28;45209;-78
2024/01/28 00:41:07;;;;;;;;;15.33;15.00;;;;;6.98;61.27;102495.53;5065087;28;45493;-78
2024/01/28 00:43:32;;;;;;;;;14.33;14.33;;;;;6.92;60.96;102490.56;5091524;28;45084;-80
2024/01/28 00:45:57;;;;;;;;;19.67;14.00;;;;;6.91;61.51;102488.88;5091133;28;44936;-79
2024/01/28 00:48:23;;;;;;;;;16.67;14.67;;;;;6.99;60.91;102509.63;5060686;28;45107;-79
2024/01/28 00:50:48;;;;;;;;;16.67;14.33;;;;;7.00;61.06;102500.75;5059770;28;45212;-78
2024/01/28 00:53:17;;;;;;;;;17.00;17.00;;;;;6.64;61.05;102437.41;5069538;28;47741;-79
2024/01/28 00:55:42;;;;;;;;;21.00;13.67;;;;;7.00;61.00;102487.53;5070481;28;45159;-77
2024/01/28 00:58:09;;;;;;;;;17.00;15.00;;;;;6.99;61.31;102486.69;5071498;28;45229;-78
2024/01/28 01:00:34;;;;;;;;;14.67;13.33;;;;;6.87;61.27;102465.31;5062042;28;45235;-79
2024/01/28 01:02:59;;;;;;;;;19.67;15.33;;;;;6.96;61.19;102481.56;5072865;28;45508;-80
2024/01/28 01:05:25;;;;;;;;;20.33;17.67;;;;;6.94;61.67;102483.41;5070783;28;45693;-79
2024/01/28 01:07:50;;;;;;;;;15.33;14.33;;;;;6.98;61.04;102477.03;5059788;28;45641;-77
2024/01/28 01:10:16;;;;;;;;;18.33;14.33;;;;;6.85;60.88;102457.47;5082023;28;45574;-77
2024/01/28 01:12:41;;;;;;;;;20.67;18.00;;;;;7.05;60.85;102480.25;5092686;28;45637;-78
2024/01/28 01:15:07;;;;;;;;;17.00;15.00;;;;;7.12;60.67;102476.34;5092348;28;45044;-78
2024/01/28 01:17:33;;;;;;;;;21.33;18.67;;;;;7.14;60.89;102469.16;5089446;28;44856;-77
2024/01/28 01:20:00;;;;;;;;;19.33;16.67;;;;;6.99;60.50;102454.09;5069924;28;45242;-78
2024/01/28 01:22:26;;;;;;;;;19.00;14.33;;;;;7.14;60.79;102481.53;5070636;28;45233;-79
2024/01/28 01:24:51;;;;;;;;;14.00;13.00;;;;;6.90;60.95;102423.72;5069135;28;45044;-78
2024/01/28 01:27:16;;;;;;;;;19.33;17.33;;;;;7.23;60.29;102479.28;5071120;28;45351;-78
2024/01/28 01:29:42;;;;;;;;;19.33;17.00;;;;;7.23;60.14;102471.34;5070627;28;45563;-75
2024/01/28 01:32:10;;;;;;;;;17.00;13.00;;;;;7.16;60.61;102454.06;5085400;28;45943;-77
2024/01/28 01:34:35;;;;;;;;;21.33;16.67;;;;;7.25;60.30;102482.72;5072682;28;45189;-78
2024/01/28 01:37:01;;;;;;;;;21.67;19.67;;;;;7.19;60.03;102455.69;5070704;28;45136;-78
2024/01/28 01:39:26;;;;;;;;;13.67;13.67;;;;;7.17;60.31;102458.44;5076578;28;45116;-76
2024/01/28 01:41:52;;;;;;;;;25.67;21.67;;;;;7.08;60.62;102437.75;5092560;28;45702;-76
2024/01/28 01:44:17;;;;;;;;;24.00;20.67;;;;;7.16;60.50;102446.13;5093484;28;44891;-75
2024/01/28 01:46:45;;;;;;;;;20.00;16.67;;;;;7.10;60.86;102429.75;5093083;28;45047;-78
2024/01/28 01:49:11;;;;;;;;;19.67;14.67;;;;;7.03;60.69;102433.66;5078407;28;46282;-76
2024/01/28 01:51:38;;;;;;;;;18.33;18.33;;;;;7.06;61.10;102438.78;5071849;28;45212;-78
2024/01/28 01:54:04;;;;;;;;;19.00;19.00;;;;;6.78;61.01;102403.16;5072203;28;45233;-76
2024/01/28 01:56:34;;;;;;;;;21.33;17.67;;;;;6.79;61.10;102415.47;5071625;28;45308;-77
2024/01/28 01:59:00;;;;;;;;;18.33;16.33;;;;;6.84;61.59;102436.41;5072295;28;44902;-77
2024/01/28 02:01:27;;;;;;;;;17.33;14.33;;;;;6.74;61.25;102422.78;5073084;28;45819;-77
2024/01/28 02:03:54;;;;;;;;;17.67;15.00;;;;;6.78;61.36;102428.75;5072092;28;44955;-78
2024/01/28 02:06:19;;;;;;;;;14.00;14.00;;;;;6.37;61.67;102361.22;5073560;28;45193;-78
2024/01/28 02:08:45;;;;;;;;;16.67;15.00;;;;;6.68;61.74;102423.09;5075020;28;44970;-78
2024/01/28 02:11:10;;;;;;;;;14.33;11.67;;;;;6.61;62.26;102437.56;5074553;28;45558;-79
2024/01/28 02:13:37;;;;;;;;;15.00;15.00;;;;;6.53;62.64;102424.72;5074734;28;44904;-77
2024/01/28 02:16:03;;;;;;;;;14.67;14.67;;;;;6.46;62.27;102427.75;5089039;28;45031;-78
2024/01/28 02:18:28;;;;;;;;;21.00;13.67;;;;;6.44;62.60;102421.69;5083983;28;45111;-78
2024/01/28 02:20:54;;;;;;;;;20.00;17.00;;;;;6.42;62.53;102415.63;5071894;28;45416;-76
2024/01/28 02:23:21;;;;;;;;;15.33;11.33;;;;;6.34;62.72;102419.50;5072539;28;45147;-77
2024/01/28 02:25:47;;;;;;;;;15.67;13.00;;;;;6.20;63.33;102395.53;5072823;28;45225;-77
2024/01/28 02:28:12;;;;;;;;;12.67;11.67;;;;;6.27;62.71;102401.38;5074178;28;45203;-76
2024/01/28 02:30:38;;;;;;;;;15.33;14.00;;;;;6.35;62.87;102407.13;5072916;28;45339;-76
2024/01/28 02:33:04;;;;;;;;;12.00;11.33;;;;;6.38;62.29;102412.25;5073675;28;45313;-78
2024/01/28 02:35:29;;;;;;;;;17.00;17.00;;;;;6.45;62.41;102411.03;5073504;28;45100;-77
2024/01/28 02:37:54;;;;;;;;;14.67;13.00;;;;;6.48;62.78;102410.03;5091145;28;45285;-76
2024/01/28 02:40:20;;;;;;;;;17.67;13.67;;;;;6.00;62.00;102324.38;5094301;28;45523;-78
2024/01/28 02:42:46;;;;;;;;;12.33;12.00;;;;;5.55;62.19;102238.59;5098001;28;45211;-76
2024/01/28 02:45:11;;;;;;;;;16.33;14.00;;;;;6.33;62.36;102380.78;5100026;27;45042;-77
2024/01/28 02:47:37;;;;;;;;;13.67;12.00;;;;;6.45;62.89;102391.69;5094616;28;45178;-76
2024/01/28 02:50:02;;;;;;;;;18.00;17.00;;;;;6.45;62.56;102399.63;5074881;28;45679;-76
2024/01/28 02:52:28;;;;;;;;;13.33;12.33;;;;;6.47;62.83;102400.41;5075455;28;44945;-79
2024/01/28 02:54:53;;;;;;;;;12.00;10.67;;;;;6.39;62.58;102385.75;5075761;28;44984;-76
2024/01/28 02:57:18;;;;;;;;;18.00;13.33;;;;;5.76;62.88;102285.03;5076802;28;45203;-77
2024/01/28 02:59:44;;;;;;;;;17.00;14.00;;;;;5.64;63.02;102275.09;5074635;28;45547;-77
2024/01/28 03:02:10;;;;;;;;;11.67;11.00;;;;;6.33;63.47;102396.66;5073904;28;45027;-77
2024/01/28 03:04:36;;;;;;;;;13.00;11.00;;;;;6.34;62.95;102381.66;5073762;28;45239;-78
2024/01/28 03:07:06;;;;;;;;;12.33;11.00;;;;;6.30;62.81;102391.53;5072599;28;45178;-77
2024/01/28 03:09:31;;;;;;;;;14.67;12.67;;;;;6.30;63.15;102370.41;5071132;28;45575;-79
2024/01/28 03:11:57;;;;;;;;;13.33;13.00;;;;;6.30;62.82;102359.81;5071519;28;45017;-77
2024/01/28 03:14:22;;;;;;;;;12.00;12.00;;;;;6.19;63.57;102346.28;5071602;28;45436;-77
2024/01/28 03:16:48;;;;;;;;;14.00;12.00;;;;;6.25;63.37;102366.28;5071233;28;45364;-76
2024/01/28 03:19:14;;;;;;;;;14.00;11.00;;;;;6.20;63.13;102363.84;5070760;28;45624;-78
2024/01/28 03:21:40;;;;;;;;;11.00;11.00;;;;;6.06;64.22;102337.28;5072824;28;45188;-78
2024/01/28 03:24:05;;;;;;;;;16.33;12.67;;;;;5.73;64.03;102290.47;5075390;28;45531;-80
2024/01/28 03:26:34;;;;;;;;;12.67;10.00;;;;;5.95;64.25;102326.38;5075074;28;45095;-78
2024/01/28 03:29:00;;;;;;;;;11.00;11.00;;;;;5.87;63.79;102318.81;5070329;28;45138;-79
2024/01/28 03:31:25;;;;;;;;;10.33;10.33;;;;;6.00;64.63;102335.78;5070680;28;45190;-74
2024/01/28 03:33:50;;;;;;;;;15.33;11.33;;;;;6.00;64.67;102342.84;5072341;28;44928;-77
2024/01/28 03:36:16;;;;;;;;;13.33;12.00;;;;;5.92;64.91;102326.53;5052534;28;45226;-77
2024/01/28 03:38:41;;;;;;;;;7.67;7.67;;;;;5.72;64.87;102304.59;5069824;28;45997;-75
2024/01/28 03:41:06;;;;;;;;;7.00;6.00;;;;;5.86;64.23;102342.66;5069849;28;44984;-77
2024/01/28 03:43:32;;;;;;;;;13.67;11.00;;;;;5.80;64.90;102334.09;5069713;28;45054;-76
2024/01/28 03:45:58;;;;;;;;;9.00;9.00;;;;;5.73;64.52;102337.09;5073016;28;44960;-77
2024/01/28 03:48:23;;;;;;;;;7.67;7.67;;;;;5.58;65.49;102317.56;5072677;28;45556;-75
2024/01/28 03:50:48;;;;;;;;;12.00;9.67;;;;;5.67;65.33;102330.34;5073372;28;44996;-78
2024/01/28 03:53:14;;;;;;;;;12.00;11.33;;;;;5.61;66.40;102330.66;5075588;28;45058;-78
2024/01/28 03:55:40;;;;;;;;;9.33;9.33;;;;;5.65;65.41;102331.34;5071616;28;45077;-77
2024/01/28 03:58:05;;;;;;;;;9.67;9.00;;;;;5.61;65.83;102330.66;5070358;28;46097;-79
2024/01/28 04:00:30;;;;;;;;;12.00;10.00;;;;;5.62;65.66;102332.34;5071605;28;45070;-78
2024/01/28 04:03:01;;;;;;;;;11.67;10.33;;;;;5.57;65.37;102331.69;5071232;28;45321;-79
2024/01/28 04:05:26;;;;;;;;;12.00;10.67;;;;;5.27;65.83;102281.28;5072029;28;44910;-78
2024/01/28 04:07:52;;;;;;;;;9.33;8.00;;;;;5.41;65.91;102299.09;5070052;28;46316;-78
2024/01/28 04:10:17;;;;;;;;;12.33;10.67;;;;;4.95;65.48;102205.47;5071252;28;44891;-77
2024/01/28 04:12:43;;;;;;;;;14.67;11.33;;;;;5.55;66.02;102301.91;5071925;28;45677;-77
2024/01/28 04:15:08;;;;;;;;;13.67;9.00;;;;;5.46;65.68;102292.66;5067826;28;45351;-79
2024/01/28 04:17:34;;;;;;;;;12.67;9.00;;;;;5.62;66.17;102319.16;5071258;28;45932;-78
2024/01/28 04:19:59;;;;;;;;;10.00;8.67;;;;;5.57;65.88;102312.38;5070252;28;45123;-78
2024/01/28 04:22:26;;;;;;;;;14.33;10.67;;;;;5.57;66.15;102307.97;5070444;28;45190;-77
2024/01/28 04:24:51;;;;;;;;;11.00;9.67;;;;;5.54;65.73;102300.19;5055994;28;44698;-77
2024/01/28 04:27:16;;;;;;;;;18.67;11.33;;;;;5.42;66.59;102277.06;5052444;28;45320;-77
2024/01/28 04:29:42;;;;;;;;;11.67;11.67;;;;;5.41;66.12;102281.47;5052349;28;45056;-78
2024/01/28 04:32:10;;;;;;;;;13.67;11.33;;;;;5.53;66.72;102297.63;5050930;28;45054;-76
2024/01/28 04:34:35;;;;;;;;;16.33;13.67;;;;;5.63;66.39;102304.19;5052059;28;45132;-77
2024/01/28 04:37:01;;;;;;;;;13.67;8.67;;;;;5.39;66.68;102264.00;5051736;28;44964;-75
2024/01/28 04:39:26;;;;;;;;;11.00;10.00;;;;;5.56;65.24;102274.59;5059536;28;45271;-77
2024/01/28 04:41:51;;;;;;;;;14.33;14.33;;;;;5.54;66.02;102263.25;5071090;28;45252;-78
2024/01/28 04:44:21;;;;;;;;;11.33;10.33;;;;;5.18;65.95;102206.09;5068212;28;45386;-76
2024/01/28 04:46:46;;;;;;;;;14.33;14.33;;;;;5.76;65.95;102305.28;5050700;28;45166;-75
2024/01/28 04:49:12;;;;;;;;;15.00;11.33;;;;;5.10;65.86;102202.97;5054137;28;45235;-79
2024/01/28 04:51:37;;;;;;;;;17.00;13.00;;;;;5.70;66.51;102301.16;5049052;28;45018;-77
2024/01/28 04:54:02;;;;;;;;;15.00;11.67;;;;;5.64;65.79;102300.63;5052144;28;45592;-77
2024/01/28 04:56:28;;;;;;;;;12.67;11.00;;;;;5.63;66.44;102304.19;5051598;28;45259;-78
2024/01/28 04:58:53;;;;;;;;;15.00;12.00;;;;;5.52;66.63;102288.88;5050227;28;44975;-79
2024/01/28 05:01:19;;;;;;;;;8.00;8.00;;;;;5.50;66.98;102293.38;5052297;28;45481;-78
2024/01/28 05:03:44;;;;;;;;;9.00;8.33;;;;;5.48;67.33;102290.81;5051548;28;45084;-77
2024/01/28 05:06:09;;;;;;;;;10.67;9.00;;;;;5.43;67.16;102287.53;5051724;28;45546;-78
2024/01/28 05:08:35;;;;;;;;;15.67;10.67;;;;;5.32;67.21;102273.13;5053876;28;45091;-79
2024/01/28 05:11:01;;;;;;;;;12.00;12.00;;;;;5.30;67.29;102272.34;5055717;28;45052;-78
2024/01/28 05:13:26;;;;;;;;;11.67;11.00;;;;;5.33;67.86;102285.41;5060951;28;44848;-75
2024/01/28 05:15:52;;;;;;;;;11.67;10.00;;;;;5.40;67.62;102302.63;5063662;28;45186;-78
2024/01/28 05:18:17;;;;;;;;;11.00;9.33;;;;;5.45;67.32;102298.00;5056829;28;45214;-77
2024/01/28 05:20:43;;;;;;;;;12.33;10.00;;;;;5.18;67.21;102244.78;5074040;28;45028;-75
2024/01/28 05:23:09;;;;;;;;;11.67;11.00;;;;;5.31;66.70;102263.50;5073913;28;45148;-75
2024/01/28 05:25:35;;;;;;;;;14.33;10.33;;;;;5.53;66.84;102285.28;5054880;28;46428;-78
2024/01/28 05:28:01;;;;;;;;;8.33;8.33;;;;;5.48;66.46;102279.41;5074216;28;45012;-78
2024/01/28 05:30:27;;;;;;;;;13.67;11.67;;;;;5.80;66.74;102302.41;5073870;28;45048;-76
2024/01/28 05:32:53;;;;;;;;;12.33;11.00;;;;;5.87;66.35;102297.72;5075255;28;44989;-75
2024/01/28 05:35:19;;;;;;;;;9.67;8.00;;;;;5.95;65.50;102294.72;5075327;28;46085;-77
2024/01/28 05:37:45;;;;;;;;;10.67;8.67;;;;;5.86;65.04;102274.03;5075037;28;45169;-77
2024/01/28 05:40:11;;;;;;;;;10.67;10.67;;;;;6.04;65.72;102299.56;5072410;28;45081;-76
2024/01/28 05:42:37;;;;;;;;;11.67;9.00;;;;;5.88;65.07;102266.88;5073294;28;45223;-77
2024/01/28 05:45:03;;;;;;;;;15.00;12.00;;;;;6.07;64.90;102302.03;5061300;28;45700;-75
2024/01/28 05:47:29;;;;;;;;;12.67;12.67;;;;;6.03;64.57;102274.09;5073375;28;45265;-77
2024/01/28 05:49:54;;;;;;;;;10.00;8.67;;;;;5.65;64.41;102207.34;5091633;28;44943;-78
2024/01/28 05:52:19;;;;;;;;;9.33;9.33;;;;;6.20;64.55;102297.81;5074367;28;45202;-79
2024/01/28 05:54:45;;;;;;;;;11.00;10.00;;;;;6.07;64.81;102288.84;5072726;28;45142;-78
2024/01/28 05:57:10;;;;;;;;;12.00;11.00;;;;;5.99;65.35;102288.34;5070440;28;45203;-77
2024/01/28 05:59:36;;;;;;;;;11.00;9.00;;;;;6.13;64.65;102301.72;5073565;28;45299;-75
2024/01/28 06:02:03;;;;;;;;;12.00;11.00;;;;;5.88;65.21;102256.34;5072665;28;45020;-74
2024/01/28 06:04:28;;;;;;;;;11.00;9.67;;;;;5.50;65.24;102185.22;5070352;28;45889;-76
2024/01/28 06:06:54;;;;;;;;;17.00;13.67;;;;;5.89;65.05;102258.91;5073267;28;45357;-75
2024/01/28 06:09:19;;;;;;;;;12.00;11.00;;;;;5.83;66.07;102258.34;5072477;28;44962;-79
2024/01/28 06:11:46;;;;;;;;;13.33;11.00;;;;;5.97;65.94;102292.84;5072810;28;45382;-75
2024/01/28 06:14:11;;;;;;;;;10.67;10.33;;;;;5.90;65.55;102276.47;5072454;28;45811;-75
2024/01/28 06:16:37;;;;;;;;;10.67;9.67;;;;;5.93;65.94;102300.06;5078916;28;45176;-77
2024/01/28 06:19:02;;;;;;;;;12.00;11.00;;;;;5.99;65.77;102301.53;5074277;28;45325;-77
2024/01/28 06:21:28;;;;;;;;;13.33;12.00;;;;;5.80;66.49;102265.47;5074121;28;44957;-75
2024/01/28 06:23:53;;;;;;;;;12.00;10.00;;;;;5.94;66.20;102288.56;5073208;28;45523;-77
2024/01/28 06:26:19;;;;;;;;;13.00;10.33;;;;;5.57;65.69;102239.38;5079254;28;44715;-76
2024/01/28 06:28:45;;;;;;;;;11.00;9.33;;;;;5.41;66.95;102214.69;5072546;28;45535;-77
2024/01/28 06:31:12;;;;;;;;;16.00;11.00;;;;;5.67;66.68;102263.53;5072207;28;45350;-75
2024/01/28 06:33:37;;;;;;;;;13.67;12.00;;;;;5.48;66.86;102237.19;5070891;28;45571;-75
2024/01/28 06:36:03;;;;;;;;;14.33;11.67;;;;;5.69;67.16;102273.06;5071084;28;45159;-76
2024/01/28 06:38:30;;;;;;;;;13.33;12.00;;;;;5.61;66.88;102275.25;5071906;28;45210;-77
2024/01/28 06:40:56;;;;;;;;;12.33;11.00;;;;;5.42;67.68;102261.25;5073737;28;44895;-76
2024/01/28 06:43:22;;;;;;;;;11.33;10.67;;;;;5.39;67.80;102264.00;5072498;28;45074;-75
2024/01/28 06:45:48;;;;;;;;;15.67;14.00;;;;;5.27;68.44;102251.41;5052245;28;45091;-76
2024/01/28 06:48:13;;;;;;;;;15.00;11.33;;;;;5.18;69.06;102237.72;5070364;28;45661;-77
2024/01/28 06:50:39;;;;;;;;;14.00;13.00;;;;;5.17;68.51;102241.28;5088898;28;45143;-78
2024/01/28 06:53:05;;;;;;;;;15.00;12.00;;;;;5.16;68.87;102241.34;5089568;28;45401;-76
2024/01/28 06:55:30;;;;;;;;;18.33;16.33;;;;;4.98;68.60;102206.19;5089466;28;45185;-78
2024/01/28 06:57:55;;;;;;;;;17.00;12.33;;;;;5.12;69.74;102226.63;5074347;28;45188;-77
2024/01/28 07:00:21;;;;;;;;;13.00;10.00;;;;;4.78;69.16;102172.00;5055360;28;45177;-75
2024/01/28 07:02:47;;;;;;;;;13.67;10.00;;;;;5.03;69.38;102214.75;5072986;28;45129;-77
2024/01/28 07:05:13;;;;;;;;;15.33;12.00;;;;;5.03;69.30;102221.78;5055445;28;45052;-75
2024/01/28 07:07:39;;;;;;;;;14.33;12.67;;;;;4.90;70.11;102205.69;5072817;28;45503;-74
2024/01/28 07:10:05;;;;;;;;;11.67;11.67;;;;;4.92;69.42;102210.88;5073600;28;45044;-77
2024/01/28 07:12:30;;;;;;;;;12.33;12.33;;;;;4.50;69.60;102157.50;5074322;28;45653;-78
2024/01/28 07:14:56;;;;;;;;;14.67;12.33;;;;;4.85;69.33;102211.19;5074175;28;45112;-76
2024/01/28 07:17:21;;;;;;;;;17.33;15.33;;;;;4.92;70.52;102231.97;5074060;28;45018;-80
2024/01/28 07:19:46;;;;;;;;;11.33;9.33;;;;;4.96;69.27;102221.22;5073482;28;45291;-79
2024/01/28 07:22:14;;;;;;;;;15.67;14.00;;;;;5.03;70.01;102224.44;5073655;28;45487;-78
2024/01/28 07:24:40;;;;;;;;;14.00;11.00;;;;;4.98;69.30;102211.44;5073230;28;45084;-78
2024/01/28 07:27:06;;;;;;;;;12.33;11.00;;;;;5.09;68.72;102229.41;5073377;28;44919;-81
2024/01/28 07:29:31;;;;;;;;;11.00;11.00;;;;;5.08;69.46;102228.56;5072698;28;45084;-81
2024/01/28 07:31:57;;;;;;;;;11.67;11.33;;;;;5.04;69.31;102227.00;5066738;28;45376;-80
2024/01/28 07:34:23;;;;;;;;;12.00;12.00;;;;;5.16;69.08;102242.22;5071563;28;45104;-79
2024/01/28 07:36:50;;;;;;;;;16.33;15.00;;;;;5.08;69.47;102212.75;5062175;28;45392;-79
2024/01/28 07:39:15;;;;;;;;;14.00;10.00;;;;;5.11;69.16;102233.69;5058725;28;45389;-79
2024/01/28 07:41:41;;;;;;;;;15.00;11.00;;;;;5.01;68.93;102227.16;5055298;28;45443;-77
2024/01/28 07:44:07;;;;;;;;;16.33;14.33;;;;;4.88;69.52;102194.38;5056783;28;45481;-78
2024/01/28 07:46:32;;;;;;;;;15.00;12.00;;;;;4.88;69.56;102199.66;5060805;28;45158;-77
2024/01/28 07:48:58;;;;;;;;;15.67;12.67;;;;;5.05;69.66;102228.69;5062039;28;45217;-76
2024/01/28 07:51:23;;;;;;;;;10.00;9.00;;;;;5.24;69.40;102247.16;5069780;28;45235;-76
2024/01/28 07:53:48;;;;;;;;;15.67;14.33;;;;;4.79;68.88;102152.63;5064420;28;45178;-80
2024/01/28 07:56:16;;;;;;;;;12.67;11.33;;;;;5.13;69.17;102199.31;5042780;28;45732;-77
2024/01/28 07:58:41;;;;;;;;;17.00;12.00;;;;;5.44;69.17;102244.41;5056724;28;45379;-78
2024/01/28 08:01:07;;;;;;;;;13.00;11.67;;;;;4.41;68.40;102054.38;5058182;28;45430;-78
2024/01/28 08:03:32;;;;;;;;;10.00;10.00;;;;;5.60;68.27;102241.00;5061336;28;45384;-78
2024/01/28 08:05:57;;;;;;;;;15.67;13.33;;;;;5.63;67.58;102232.97;5049920;28;45471;-78
2024/01/28 08:08:23;;;;;;;;;16.00;13.67;;;;;5.77;67.50;102244.50;5055293;28;45382;-81
2024/01/28 08:10:49;;;;;;;;;14.67;10.67;;;;;5.42;66.82;102184.75;5067772;28;46188;-78
2024/01/28 08:13:14;;;;;;;;;16.33;14.33;;;;;5.42;67.14;102174.19;5074256;28;45044;-79
2024/01/28 08:15:40;;;;;;;;;16.67;11.33;;;;;5.90;67.14;102233.38;5072535;28;45506;-77
2024/01/28 08:18:05;;;;;;;;;18.67;16.00;;;;;5.83;66.67;102211.69;5060525;28;45396;-76
2024/01/28 08:20:31;;;;;;;;;15.33;13.33;;;;;6.03;67.17;102237.13;5064703;28;45628;-79
2024/01/28 08:22:56;;;;;;;;;18.00;12.00;;;;;6.09;66.49;102244.72;5066836;28;45104;-77
2024/01/28 08:25:23;;;;;;;;;11.33;11.33;;;;;6.07;66.22;102225.47;5059669;28;45437;-79
2024/01/28 08:27:49;;;;;;;;;13.67;13.33;;;;;6.16;66.47;102238.19;5065514;28;45483;-76
2024/01/28 08:30:15;;;;;;;;;19.67;14.00;;;;;6.23;66.19;102233.47;5067989;28;45394;-78
2024/01/28 08:32:40;;;;;;;;;12.33;12.33;;;;;6.11;66.30;102200.59;5067354;28;45329;-77
2024/01/28 08:35:07;;;;;;;;;17.67;16.33;;;;;6.31;66.42;102221.53;5069466;28;45147;-78
2024/01/28 08:37:32;;;;;;;;;16.33;13.00;;;;;6.45;65.72;102235.81;5060506;28;45477;-78
2024/01/28 08:39:58;;;;;;;;;16.00;14.67;;;;;6.47;65.67;102228.66;5055472;28;45866;-77
2024/01/28 08:42:24;;;;;;;;;11.33;8.67;;;;;6.63;65.54;102241.00;5062624;28;45356;-77
2024/01/28 08:44:49;;;;;;;;;14.00;11.33;;;;;6.62;64.91;102210.22;5066961;28;45203;-76
2024/01/28 08:47:15;;;;;;;;;18.67;14.00;;;;;6.96;64.15;102237.44;5063818;28;45459;-77
2024/01/28 08:49:41;;;;;;;;;18.00;14.33;;;;;6.93;64.23;102221.75;5064032;28;45400;-76
2024/01/28 08:52:12;;;;;;;;;14.00;11.67;;;;;7.19;63.25;102241.44;5070515;28;45237;-77
2024/01/28 08:54:38;;;;;;;;;18.00;15.33;;;;;6.99;63.41;102185.22;5065447;28;45537;-78
2024/01/28 08:57:04;;;;;;;;;14.67;12.00;;;;;7.35;63.17;102238.81;5059633;28;45374;-80
2024/01/28 08:59:29;;;;;;;;;14.00;12.67;;;;;7.11;62.61;102182.84;5054371;28;46249;-80
2024/01/28 09:01:55;;;;;;;;;15.00;14.33;;;;;7.56;62.22;102243.72;5054986;28;46660;-77
2024/01/28 09:04:20;;;;;;;;;18.33;16.00;;;;;7.67;61.97;102240.47;5056413;28;45986;-79
2024/01/28 09:06:46;;;;;;;;;18.00;14.33;;;;;7.37;61.98;102179.56;5056545;28;45690;-79
2024/01/28 09:09:11;;;;;;;;;16.67;14.33;;;;;7.77;61.55;102222.25;5058994;28;45360;-79
2024/01/28 09:11:37;;;;;;;;;18.00;15.00;;;;;7.78;61.08;102200.97;5060926;28;45453;-79
2024/01/28 09:14:03;;;;;;;;;16.00;14.00;;;;;7.99;61.02;102227.13;5053221;28;45244;-80
2024/01/28 09:16:28;;;;;;;;;18.00;17.33;;;;;8.08;60.80;102208.91;5070414;28;45129;-79
2024/01/28 09:18:54;;;;;;;;;18.00;15.00;;;;;8.08;59.82;102200.97;5059832;28;46014;-80
2024/01/28 09:21:19;;;;;;;;;16.00;15.00;;;;;8.24;59.66;102217.66;5053156;28;45484;-82
2024/01/28 09:23:45;;;;;;;;;16.00;15.00;;;;;7.90;59.70;102146.44;5054327;28;45569;-81
2024/01/28 09:26:11;;;;;;;;;13.00;13.00;;;;;8.53;59.40;102229.13;5055154;28;45339;-78
2024/01/28 09:28:37;;;;;;;;;16.00;13.33;;;;;8.70;58.78;102198.94;5054878;28;45345;-81
2024/01/28 09:31:06;;;;;;;;;17.00;16.00;;;;;8.63;57.80;102171.09;5035868;28;45624;-78
2024/01/28 09:33:31;;;;;;;;;15.67;15.00;;;;;8.23;58.28;102144.41;5054324;28;45422;-77
2024/01/28 09:35:58;;;;;;;;;18.67;16.67;;;;;8.55;58.72;102215.78;5054668;28;45481;-84
2024/01/28 09:38:23;;;;;;;;;22.33;17.33;;;;;8.41;58.97;102221.06;5055543;28;45990;-80
2024/01/28 09:40:52;;;;;;;;;17.00;16.33;;;;;8.28;59.68;102220.94;5034744;28;46482;-79
2024/01/28 09:43:29;;;;;;;;;16.00;16.00;;;;;8.16;59.70;102214.59;5052919;28;45637;-80
2024/01/28 09:45:56;;;;;;;;;18.67;16.33;;;;;8.14;60.07;102220.94;5058647;28;45451;-78
2024/01/28 09:48:21;;;;;;;;;18.33;16.67;;;;;8.13;60.38;102217.41;5068164;28;46760;-79
2024/01/28 09:50:47;;;;;;;;;15.67;13.00;;;;;8.12;60.30;102217.53;5060481;28;45282;-81
2024/01/28 09:53:16;;;;;;;;;20.00;16.33;;;;;8.19;60.27;102210.91;5055463;28;45383;-80
2024/01/28 09:55:41;;;;;;;;;15.00;15.00;;;;;8.04;60.29;102186.22;5059517;28;45419;-78
2024/01/28 09:58:08;;;;;;;;;15.00;14.67;;;;;8.15;60.31;102209.38;5058584;28;45482;-81
2024/01/28 10:00:34;;;;;;;;;18.67;17.00;;;;;8.19;60.50;102213.53;5057909;28;45493;-78
2024/01/28 10:03:00;;;;;;;;;20.67;17.67;;;;;8.26;60.51;102208.75;5057580;28;45556;-82
2024/01/28 10:05:28;;;;;;;;;17.67;17.67;;;;;8.33;60.50;102215.38;5060762;28;45230;-81
2024/01/28 10:08:04;;;;;;;;;16.67;16.67;;;;;8.40;59.92;102225.53;5058948;28;45576;-82
2024/01/28 10:10:33;;;;;;;;;11.33;8.67;;;;;8.35;59.83;102205.56;5050664;28;45328;-79
2024/01/28 10:12:59;;;;;;;;;19.00;15.67;;;;;8.55;59.72;102223.72;5073522;28;44830;-80
2024/01/28 10:15:28;;;;;;;;;23.00;19.33;;;;;8.58;59.85;102217.38;5062060;28;45319;-77
2024/01/28 10:17:53;;;;;;;;;21.67;18.67;;;;;8.65;59.37;102219.59;5062361;28;46260;-78
2024/01/28 10:20:21;;;;;;;;;19.33;19.00;;;;;7.71;59.41;102067.28;5067811;28;45510;-77
2024/01/28 10:22:47;;;;;;;;;21.33;17.33;;;;;8.76;59.46;102238.31;5076993;28;45220;-77
2024/01/28 10:25:16;;;;;;;;;20.33;17.33;;;;;8.20;59.01;102133.13;5070953;28;45363;-80
2024/01/28 10:27:43;;;;;;;;;20.00;17.33;;;;;8.86;59.04;102232.44;5043484;28;45442;-77
2024/01/28 10:30:12;;;;;;;;;17.33;17.33;;;;;8.70;59.15;102195.44;5042378;28;45513;-79
2024/01/28 10:32:38;;;;;;;;;18.33;16.00;;;;;8.77;59.21;102176.38;5043452;28;45308;-83
2024/01/28 10:35:08;;;;;;;;;17.33;17.33;;;;;9.10;58.90;102222.91;5032339;28;45337;-81
2024/01/28 10:37:36;;;;;;;;;23.00;19.67;;;;;9.15;58.91;102207.56;5045220;28;45638;-88
2024/01/28 10:40:11;;;;;;;;;17.33;17.33;;;;;9.35;58.24;102227.50;5061658;28;45478;-80
2024/01/28 10:42:39;;;;;;;;;17.00;17.00;;;;;9.25;57.85;102192.75;5057544;28;45303;-81
2024/01/28 10:45:17;;;;;;;;;17.33;15.00;;;;;8.48;57.89;102060.75;5059869;28;45363;-84
2024/01/28 10:47:51;;;;;;;;;13.33;12.00;;;;;9.43;57.95;102215.44;5059689;28;46356;-85
2024/01/28 10:50:19;;;;;;;;;18.00;18.00;;;;;9.38;57.58;102209.56;5063023;28;45422;-83
2024/01/28 10:52:46;;;;;;;;;18.00;16.00;;;;;9.24;57.76;102169.81;5062541;28;45235;-81
2024/01/28 10:55:12;;;;;;;;;22.33;19.33;;;;;9.08;58.19;102150.53;5061897;28;45608;-81
2024/01/28 10:57:40;;;;;;;;;21.00;18.00;;;;;9.09;57.79;102154.91;5061613;28;46057;-83
2024/01/28 11:00:06;;;;;;;;;22.00;21.33;;;;;8.34;58.01;102023.66;5066556;28;45580;-82
2024/01/28 11:02:33;;;;;;;;;19.67;17.67;;;;;9.33;57.74;102171.84;5045821;28;45333;-78
2024/01/28 11:04:59;;;;;;;;;18.33;18.33;;;;;9.15;58.03;102131.47;5063504;28;45339;-82
2024/01/28 11:07:25;;;;;;;;;22.00;17.33;;;;;8.50;57.73;102019.09;5071905;28;46320;-81
2024/01/28 11:09:52;;;;;;;;;20.67;18.67;;;;;9.45;58.03;102157.78;5045841;28;45248;-79
2024/01/28 11:12:18;;;;;;;;;21.00;17.33;;;;;9.17;57.72;102110.13;5068828;28;45471;-83
2024/01/28 11:14:46;;;;;;;;;26.67;23.33;;;;;9.51;58.02;102145.03;5053901;28;45549;-86